createdAt,value
2023-01-28T00:01:53.347Z,100590.81
2023-01-28T00:04:56.135Z,100590.81
2023-01-28T00:08:01.969Z,100598.50
2023-01-28T00:11:06.198Z,100596.00
2023-01-28T00:14:11.696Z,100605.44
2023-01-28T00:17:15.582Z,100605.44
2023-01-28T00:20:21.593Z,100605.44
2023-01-28T00:23:25.132Z,100605.44
2023-01-28T00:26:28.019Z,100607.94
2023-01-28T00:29:31.346Z,100603.66
2023-01-28T00:32:34.099Z,100602.75
2023-01-28T00:35:36.855Z,100601.09
2023-01-28T00:38:39.811Z,100609.69
2023-01-28T00:41:42.748Z,100603.56
2023-01-28T00:44:45.603Z,100603.56
2023-01-28T00:47:48.646Z,100600.16
2023-01-28T00:50:51.619Z,100602.94
2023-01-28T00:53:54.372Z,100608.75
2023-01-28T00:56:57.191Z,100609.50
2023-01-28T01:00:00.509Z,100609.50
2023-01-28T01:03:03.449Z,100606.91
2023-01-28T01:06:06.936Z,100613.66
2023-01-28T01:09:12.304Z,100611.06
2023-01-28T01:12:15.404Z,100611.88
2023-01-28T01:15:18.923Z,100604.13
2023-01-28T01:18:21.776Z,100605.69
2023-01-28T01:21:27.266Z,100607.44
2023-01-28T01:24:31.663Z,100613.56
2023-01-28T01:27:34.537Z,100612.63
2023-01-28T01:30:38.846Z,100612.72
2023-01-28T01:33:42.960Z,100617.72
2023-01-28T01:36:45.938Z,100618.53
2023-01-28T01:39:49.333Z,100618.53
2023-01-28T01:42:52.231Z,100607.34
2023-01-28T01:46:00.525Z,100615.00
2023-01-28T01:49:13.784Z,100615.84
2023-01-28T01:52:19.424Z,100613.16
2023-01-28T01:55:25.485Z,100616.47
2023-01-28T01:58:30.759Z,100622.41
2023-01-28T02:01:33.715Z,100622.50
2023-01-28T02:04:40.280Z,100625.00
2023-01-28T02:07:47.823Z,100616.91
2023-01-28T02:11:06.284Z,100623.78
2023-01-28T02:14:11.248Z,100626.25
2023-01-28T02:17:16.091Z,100630.63
2023-01-28T02:20:23.348Z,100627.94
2023-01-28T02:23:50.933Z,100636.63
2023-01-28T02:27:25.561Z,100639.22
2023-01-28T02:30:37.739Z,100639.97
2023-01-28T02:33:57.333Z,100642.75
2023-01-28T02:37:34.093Z,100645.44
2023-01-28T02:41:02.097Z,100649.88
2023-01-28T02:44:05.491Z,100640.75
2023-01-28T02:47:30.782Z,100631.78
2023-01-28T02:50:43.887Z,100633.84
2023-01-28T02:53:52.665Z,100631.44
2023-01-28T02:57:29.953Z,100636.72
2023-01-28T03:00:55.525Z,100632.75
2023-01-28T03:04:09.942Z,100635.91
2023-01-28T03:07:13.411Z,100634.41
2023-01-28T03:10:23.042Z,100634.69
2023-01-28T03:13:44.326Z,100622.88
2023-01-28T03:17:06.226Z,100627.41
2023-01-28T03:20:29.223Z,100634.53
2023-01-28T03:23:59.407Z,100637.13
2023-01-28T03:27:29.389Z,100637.94
2023-01-28T03:30:59.732Z,100632.97
2023-01-28T03:34:22.243Z,100636.28
2023-01-28T03:37:27.180Z,100639.16
2023-01-28T03:40:30.634Z,100645.19
2023-01-28T03:43:33.984Z,100647.75
2023-01-28T03:46:39.718Z,100645.34
2023-01-28T03:49:45.819Z,100648.78
2023-01-28T03:52:49.289Z,100651.38
2023-01-28T03:55:53.196Z,100649.72
2023-01-28T03:58:57.528Z,100647.03
2023-01-28T04:02:00.723Z,100649.72
2023-01-28T04:05:07.277Z,100640.56
2023-01-28T04:08:10.809Z,100645.47
2023-01-28T04:11:19.742Z,100647.94
2023-01-28T04:14:22.831Z,100639.63
2023-01-28T04:17:25.716Z,100629.56
2023-01-28T04:20:29.192Z,100644.81
2023-01-28T04:23:32.338Z,100646.56
2023-01-28T04:26:36.027Z,100643.16
2023-01-28T04:29:38.871Z,100646.56
2023-01-28T04:32:41.739Z,100652.66
2023-01-28T04:35:44.785Z,100655.25
2023-01-28T04:38:48.077Z,100653.50
2023-01-28T04:41:50.962Z,100657.84
2023-01-28T04:44:54.085Z,100659.50
2023-01-28T04:47:57.216Z,100653.59
2023-01-28T04:51:01.010Z,100656.91
2023-01-28T04:54:04.355Z,100661.28
2023-01-28T04:57:07.522Z,100664.78
2023-01-28T05:00:14.182Z,100668.13
2023-01-28T05:03:17.208Z,100668.22
2023-01-28T05:06:20.177Z,100673.28
2023-01-28T05:09:23.497Z,100676.63
2023-01-28T05:12:26.941Z,100677.44
2023-01-28T05:15:30.070Z,100667.19
2023-01-28T05:18:33.128Z,100669.69
2023-01-28T05:21:36.547Z,100672.38
2023-01-28T05:24:39.714Z,100682.53
2023-01-28T05:27:51.409Z,100674.13
2023-01-28T05:30:54.706Z,100676.53
2023-01-28T05:33:58.439Z,100680.97
2023-01-28T05:37:01.525Z,100684.19
2023-01-28T05:40:04.789Z,100685.13
2023-01-28T05:43:08.990Z,100685.97
2023-01-28T05:46:11.783Z,100686.78
2023-01-28T05:49:14.977Z,100686.69
2023-01-28T05:52:17.783Z,100696.12
2023-01-28T05:55:20.988Z,100689.19
2023-01-28T05:58:24.076Z,100698.63
2023-01-28T06:01:27.001Z,100691.78
2023-01-28T06:04:29.799Z,100695.94
2023-01-28T06:07:32.604Z,100687.34
2023-01-28T06:10:35.926Z,100691.69
2023-01-28T06:13:38.648Z,100695.94
2023-01-28T06:16:41.453Z,100707.13
2023-01-28T06:19:44.500Z,100705.47
2023-01-28T06:22:47.660Z,100697.72
2023-01-28T06:25:55.331Z,100707.13
2023-01-28T06:28:58.157Z,100703.81
2023-01-28T06:32:00.948Z,100708.91
2023-01-28T06:35:04.401Z,100709.72
2023-01-28T06:38:07.236Z,100713.25
2023-01-28T06:41:10.271Z,100714.91
2023-01-28T06:44:13.220Z,100716.56
2023-01-28T06:47:16.021Z,100722.50
2023-01-28T06:50:18.810Z,100725.81
2023-01-28T06:53:21.781Z,100724.16
2023-01-28T06:56:24.891Z,100730.91
2023-01-28T06:59:27.650Z,100736.84
2023-01-28T07:02:30.561Z,100735.06
2023-01-28T07:05:33.465Z,100747.00
2023-01-28T07:08:38.012Z,100755.44
2023-01-28T07:11:40.751Z,100757.19
2023-01-28T07:14:43.563Z,100760.50
2023-01-28T07:17:46.472Z,100762.94
2023-01-28T07:20:50.045Z,100765.38
2023-01-28T07:23:53.388Z,100761.75
2023-01-28T07:26:56.165Z,100764.34
2023-01-28T07:29:59.044Z,100772.03
2023-01-28T07:33:01.840Z,100779.63
2023-01-28T07:36:05.054Z,100769.25
2023-01-28T07:39:08.493Z,100774.25
2023-01-28T07:42:11.306Z,100770.00
2023-01-28T07:45:14.656Z,100788.88
2023-01-28T07:48:17.444Z,100792.94
2023-01-28T07:51:20.289Z,100789.25
2023-01-28T07:54:23.078Z,100793.50
2023-01-28T07:57:27.162Z,100793.31
2023-01-28T08:00:31.944Z,100797.56
2023-01-28T08:03:34.908Z,100793.94
2023-01-28T08:06:37.957Z,100799.41
2023-01-28T08:09:43.716Z,100807.94
2023-01-28T08:12:59.095Z,100803.47
2023-01-28T08:16:02.497Z,100803.13
2023-01-28T08:19:05.367Z,100799.53
2023-01-28T08:22:08.288Z,100804.41
2023-01-28T08:25:11.070Z,100806.63
2023-01-28T08:28:15.442Z,100809.97
2023-01-28T08:31:18.250Z,100805.50
2023-01-28T08:34:22.677Z,100814.97
2023-01-28T08:37:25.395Z,100808.31
2023-01-28T08:40:29.407Z,100812.66
2023-01-28T08:43:32.158Z,100817.00
2023-01-28T08:46:35.066Z,100825.91
2023-01-28T08:49:38.433Z,100821.16
2023-01-28T08:52:45.434Z,100822.00
2023-01-28T08:55:48.287Z,100823.22
2023-01-28T08:58:56.888Z,100832.38
2023-01-28T09:02:00.942Z,100834.97
2023-01-28T09:05:06.736Z,100834.78
2023-01-28T09:08:14.512Z,100837.63
2023-01-28T09:11:17.637Z,100840.13
2023-01-28T09:14:20.548Z,100835.25
2023-01-28T09:17:23.761Z,100844.69
2023-01-28T09:20:29.881Z,100843.00
2023-01-28T09:23:35.801Z,100855.50
2023-01-28T09:26:39.179Z,100851.25
2023-01-28T09:29:41.984Z,100859.03
2023-01-28T09:32:54.147Z,100860.78
2023-01-28T09:35:56.979Z,100860.25
2023-01-28T09:38:59.784Z,100855.59
2023-01-28T09:42:22.401Z,100857.75
2023-01-28T09:45:28.062Z,100856.63
2023-01-28T09:48:38.482Z,100853.94
2023-01-28T09:51:44.850Z,100851.25
2023-01-28T09:54:51.249Z,100853.66
2023-01-28T09:57:55.684Z,100861.53
2023-01-28T10:01:11.092Z,100848.09
2023-01-28T10:04:23.634Z,100861.25
2023-01-28T10:07:48.111Z,100846.81
2023-01-28T10:11:01.061Z,100845.41
2023-01-28T10:14:31.717Z,100844.03
2023-01-28T10:17:40.791Z,100851.06
2023-01-28T10:20:56.306Z,100852.25
2023-01-28T10:24:08.373Z,100847.78
2023-01-28T10:27:22.856Z,100845.09
2023-01-28T10:30:31.977Z,100845.75
2023-01-28T10:33:41.178Z,100854.41
2023-01-28T10:36:44.328Z,100849.22
2023-01-28T10:39:47.533Z,100846.97
2023-01-28T10:42:50.553Z,100856.59
2023-01-28T10:46:10.341Z,100857.34
2023-01-28T10:49:18.039Z,100855.47
2023-01-28T10:52:20.780Z,100856.97
2023-01-28T10:55:25.325Z,100852.16
2023-01-28T10:58:30.101Z,100853.38
2023-01-28T11:01:52.375Z,100855.03
2023-01-28T11:05:26.831Z,100854.00
2023-01-28T11:08:30.903Z,100850.84
2023-01-28T11:11:33.900Z,100859.16
2023-01-28T11:14:37.198Z,100854.34
2023-01-28T11:17:40.222Z,100859.91
2023-01-28T11:20:45.800Z,100860.72
2023-01-28T11:23:57.924Z,100852.34
2023-01-28T11:27:12.471Z,100856.91
2023-01-28T11:30:23.180Z,100854.56
2023-01-28T11:33:49.734Z,100868.75
2023-01-28T11:37:03.022Z,100866.88
2023-01-28T11:40:21.651Z,100856.22
2023-01-28T11:43:30.051Z,100862.69
2023-01-28T11:46:43.419Z,100860.19
2023-01-28T11:50:07.558Z,100855.53
2023-01-28T11:53:33.848Z,100852.25
2023-01-28T11:56:50.912Z,100854.28
2023-01-28T12:00:16.628Z,100855.56
2023-01-28T12:03:57.444Z,100843.22
2023-01-28T12:07:02.785Z,100841.22
2023-01-28T12:10:21.774Z,100845.28
2023-01-28T12:13:45.277Z,100839.06
2023-01-28T12:17:18.234Z,100842.56
2023-01-28T12:20:24.613Z,100843.00
2023-01-28T12:23:57.167Z,100846.34
2023-01-28T12:27:42.718Z,100854.31
2023-01-28T12:31:10.121Z,100847.78
2023-01-28T12:34:15.775Z,100851.13
2023-01-28T12:37:58.130Z,100851.84
2023-01-28T12:41:12.352Z,100847.63
2023-01-28T12:44:32.024Z,100850.66
2023-01-28T12:47:38.602Z,100853.28
2023-01-28T12:50:48.645Z,100849.16
2023-01-28T12:54:02.793Z,100845.59
2023-01-28T12:57:08.893Z,100848.84
2023-01-28T13:00:30.336Z,100846.03
2023-01-28T13:03:39.433Z,100853.94
2023-01-28T13:06:51.713Z,100849.44
2023-01-28T13:10:06.418Z,100852.06
2023-01-28T13:13:19.419Z,100863.69
2023-01-28T13:16:36.933Z,100858.69
2023-01-28T13:19:44.203Z,100864.28
2023-01-28T13:22:48.198Z,100873.00
2023-01-28T13:25:57.908Z,100855.94
2023-01-28T13:29:21.351Z,100859.47
2023-01-28T13:32:33.323Z,100861.88
2023-01-28T13:35:43.983Z,100858.53
2023-01-28T13:39:02.410Z,100864.16
2023-01-28T13:42:20.313Z,100864.88
2023-01-28T13:45:24.477Z,100876.09
2023-01-28T13:48:44.832Z,100876.94
2023-01-28T13:52:05.455Z,100878.59
2023-01-28T13:55:45.377Z,100881.94
2023-01-28T13:59:12.593Z,100886.28
2023-01-28T14:02:51.581Z,100889.00
2023-01-28T14:05:58.162Z,100892.81
2023-01-28T14:09:20.242Z,100895.44
2023-01-28T14:12:34.185Z,100900.00
2023-01-28T14:15:46.145Z,100901.66
2023-01-28T14:18:52.770Z,100900.09
2023-01-28T14:21:56.280Z,100905.38
2023-01-28T14:25:01.587Z,100907.06
2023-01-28T14:28:05.395Z,100904.56
2023-01-28T14:31:32.812Z,100915.88
2023-01-28T14:34:36.557Z,100915.97
2023-01-28T14:37:39.599Z,100913.47
2023-01-28T14:40:43.056Z,100918.87
2023-01-28T14:43:45.950Z,100920.53
2023-01-28T14:47:18.014Z,100918.03
2023-01-28T14:50:32.554Z,100927.50
2023-01-28T14:53:54.464Z,100926.75
2023-01-28T14:57:15.427Z,100929.25
2023-01-28T15:00:24.725Z,100934.56
2023-01-28T15:03:34.009Z,100931.94
2023-01-28T15:06:38.902Z,100932.16
2023-01-28T15:09:43.585Z,100939.22
2023-01-28T15:12:53.794Z,100937.53
2023-01-28T15:16:00.894Z,100941.91
2023-01-28T15:19:08.927Z,100943.88
2023-01-28T15:22:15.298Z,100948.22
2023-01-28T15:25:24.472Z,100956.31
2023-01-28T15:28:34.967Z,100952.97
2023-01-28T15:31:40.266Z,100957.41
2023-01-28T15:34:48.354Z,100956.75
2023-01-28T15:37:53.161Z,100954.25
2023-01-28T15:40:58.564Z,100962.13
2023-01-28T15:44:01.488Z,100971.88
2023-01-28T15:47:15.217Z,100979.84
2023-01-28T15:50:25.532Z,100972.16
2023-01-28T15:53:34.881Z,100971.34
2023-01-28T15:56:38.546Z,100981.91
2023-01-28T15:59:41.324Z,100981.91
2023-01-28T16:03:02.258Z,100983.75
2023-01-28T16:06:22.345Z,100989.87
2023-01-28T16:09:36.858Z,100996.84
2023-01-28T16:12:39.761Z,100994.34
2023-01-28T16:15:47.725Z,101000.56
2023-01-28T16:18:53.993Z,101004.06
2023-01-28T16:21:58.421Z,101004.16
2023-01-28T16:25:02.312Z,101003.97
2023-01-28T16:28:17.382Z,101000.56
2023-01-28T16:31:23.727Z,101005.84
2023-01-28T16:34:29.944Z,101002.50
2023-01-28T16:37:32.917Z,101009.53
2023-01-28T16:40:38.669Z,101002.69
2023-01-28T16:43:44.499Z,101007.88
2023-01-28T16:46:47.295Z,101019.19
2023-01-28T16:49:52.251Z,101014.00
2023-01-28T16:52:56.214Z,101020.13
2023-01-28T16:56:00.088Z,101016.03
2023-01-28T16:59:03.216Z,101001.91
2023-01-28T17:02:06.094Z,101026.41
2023-01-28T17:05:11.878Z,101033.37
2023-01-28T17:08:14.577Z,101035.97
2023-01-28T17:11:20.429Z,101040.22
2023-01-28T17:14:27.049Z,101037.72
2023-01-28T17:17:30.115Z,101049.78
2023-01-28T17:20:37.564Z,101039.47
2023-01-28T17:23:42.025Z,101036.87
2023-01-28T17:26:45.062Z,101043.94
2023-01-28T17:29:48.156Z,101044.50
2023-01-28T17:32:50.987Z,101040.50
2023-01-28T17:35:54.227Z,101050.87
2023-01-28T17:39:00.419Z,101050.87
2023-01-28T17:42:03.481Z,101063.94
2023-01-28T17:45:06.930Z,101063.84
2023-01-28T17:48:10.925Z,101070.91
2023-01-28T17:51:14.324Z,101076.75
2023-01-28T17:54:18.456Z,101076.00
2023-01-28T17:57:21.687Z,101075.06
2023-01-28T18:00:27.126Z,101076.19
2023-01-28T18:03:30.643Z,101082.19
2023-01-28T18:06:35.140Z,101085.53
2023-01-28T18:09:43.305Z,101083.12
2023-01-28T18:12:46.912Z,101084.94
2023-01-28T18:15:49.916Z,101090.41
2023-01-28T18:18:53.179Z,101092.34
2023-01-28T18:21:56.762Z,101095.59
2023-01-28T18:25:00.528Z,101099.19
2023-01-28T18:28:06.434Z,101101.22
2023-01-28T18:31:09.817Z,101099.81
2023-01-28T18:34:12.782Z,101095.66
2023-01-28T18:37:15.561Z,101107.97
2023-01-28T18:40:18.718Z,101099.59
2023-01-28T18:43:22.284Z,101097.84
2023-01-28T18:46:25.305Z,101108.47
2023-01-28T18:49:28.271Z,101104.41
2023-01-28T18:52:31.239Z,101105.22
2023-01-28T18:55:34.499Z,101105.31
2023-01-28T18:58:37.931Z,101108.56
2023-01-28T19:01:42.860Z,101115.59
2023-01-28T19:04:48.794Z,101108.66
2023-01-28T19:07:51.631Z,101121.72
2023-01-28T19:10:59.564Z,101111.59
2023-01-28T19:14:46.082Z,101116.69
2023-01-28T19:17:59.331Z,101123.66
2023-01-28T19:21:04.651Z,101130.41
2023-01-28T19:24:11.853Z,101137.53
2023-01-28T19:27:15.036Z,101135.84
2023-01-28T19:30:19.147Z,101143.47
2023-01-28T19:33:22.595Z,101142.47
2023-01-28T19:36:27.167Z,101139.19
2023-01-28T19:39:31.865Z,101139.88
2023-01-28T19:42:34.881Z,101146.72
2023-01-28T19:45:37.901Z,101144.12
2023-01-28T19:48:41.647Z,101144.97
2023-01-28T19:51:45.274Z,101149.06
2023-01-28T19:54:48.691Z,101162.84
2023-01-28T19:57:51.807Z,101151.66
2023-01-28T20:00:54.923Z,101160.34
2023-01-28T20:03:59.861Z,101155.91
2023-01-28T20:07:02.956Z,101166.03
2023-01-28T20:10:06.806Z,101164.34
2023-01-28T20:13:13.667Z,101166.53
2023-01-28T20:16:21.936Z,101168.44
2023-01-28T20:19:25.936Z,101166.78
2023-01-28T20:22:29.195Z,101171.12
2023-01-28T20:25:36.295Z,101174.38
2023-01-28T20:28:42.477Z,101167.44
2023-01-28T20:31:51.594Z,101176.97
2023-01-28T20:35:04.001Z,101175.22
2023-01-28T20:38:07.220Z,101182.09
2023-01-28T20:41:23.182Z,101173.47
2023-01-28T20:44:27.004Z,101184.69
2023-01-28T20:47:31.298Z,101184.59
2023-01-28T20:50:35.332Z,101189.03
2023-01-28T20:53:38.740Z,101194.22
2023-01-28T20:56:41.863Z,101193.37
2023-01-28T20:59:45.336Z,101201.81
2023-01-28T21:02:48.427Z,101202.75
2023-01-28T21:05:51.590Z,101206.53
2023-01-28T21:08:55.312Z,101202.94
2023-01-28T21:12:01.867Z,101208.19
2023-01-28T21:15:09.956Z,101212.53
2023-01-28T21:18:14.493Z,101204.94
2023-01-28T21:21:23.199Z,101212.63
2023-01-28T21:24:29.139Z,101220.50
2023-01-28T21:27:33.371Z,101215.41
2023-01-28T21:30:36.597Z,101221.41
2023-01-28T21:33:39.573Z,101224.94
2023-01-28T21:36:42.403Z,101224.09
2023-01-28T21:39:51.764Z,101224.00
2023-01-28T21:42:55.648Z,101224.09
2023-01-28T21:45:59.484Z,101234.38
2023-01-28T21:49:04.436Z,101237.81
2023-01-28T21:52:07.767Z,101233.63
2023-01-28T21:55:10.690Z,101238.75
2023-01-28T21:58:34.465Z,101250.03
2023-01-28T22:01:37.362Z,101244.00
2023-01-28T22:04:42.597Z,101241.34
2023-01-28T22:07:49.156Z,101248.28
2023-01-28T22:10:54.842Z,101256.72
2023-01-28T22:13:58.162Z,101260.16
2023-01-28T22:17:01.855Z,101259.31
2023-01-28T22:20:05.289Z,101266.84
2023-01-28T22:23:08.200Z,101254.88
2023-01-28T22:26:11.035Z,101258.31
2023-01-28T22:29:15.781Z,101262.41
2023-01-28T22:32:18.941Z,101267.59
2023-01-28T22:35:22.436Z,101258.06
2023-01-28T22:38:25.181Z,101263.25
2023-01-28T22:41:29.202Z,101264.00
2023-01-28T22:44:35.474Z,101268.19
2023-01-28T22:47:38.234Z,101265.59
2023-01-28T22:50:50.285Z,101264.59
2023-01-28T22:53:56.369Z,101266.50
2023-01-28T22:56:59.365Z,101271.44
2023-01-28T23:00:02.563Z,101266.19
2023-01-28T23:03:07.211Z,101270.53
2023-01-28T23:06:10.608Z,101271.44
2023-01-28T23:09:13.374Z,101269.03
2023-01-28T23:12:16.112Z,101267.25
2023-01-28T23:15:37.356Z,101268.84
2023-01-28T23:18:58.708Z,101269.53
2023-01-28T23:22:20.516Z,101269.59
2023-01-28T23:25:24.455Z,101275.13
2023-01-28T23:28:27.464Z,101276.06
2023-01-28T23:31:30.328Z,101269.19
2023-01-28T23:34:38.226Z,101278.91
2023-01-28T23:37:44.061Z,101291.13
2023-01-28T23:40:46.809Z,101277.47
2023-01-28T23:43:52.455Z,101291.72
2023-01-28T23:46:56.648Z,101287.44
2023-01-28T23:50:00.785Z,101291.88
2023-01-28T23:53:04.646Z,101291.03
2023-01-28T23:56:08.104Z,101292.78
2023-01-28T23:59:10.827Z,101297.72
